sensor_id;sensor_type;location;lat;lon;timestamp;pressure;altitude;pressure_sealevel;temperature;humidity
52745;BME280;38637;49.984;20.426;2023-02-23T00:01:43;99536.31;;;1.69;77.93
52745;BME280;38637;49.984;20.426;2023-02-23T00:04:08;99528.25;;;1.69;78.17
52745;BME280;38637;49.984;20.426;2023-02-23T00:06:35;99524.50;;;1.70;77.45
52745;BME280;38637;49.984;20.426;2023-02-23T00:09:01;99524.34;;;1.72;77.30
52745;BME280;38637;49.984;20.426;2023-02-23T00:11:30;99523.06;;;1.74;77.12
52745;BME280;38637;49.984;20.426;2023-02-23T00:13:57;99505.41;;;1.58;77.17
52745;BME280;38637;49.984;20.426;2023-02-23T00:16:25;99524.06;;;1.60;77.54
52745;BME280;38637;49.984;20.426;2023-02-23T00:18:53;99525.69;;;1.54;77.82
52745;BME280;38637;49.984;20.426;2023-02-23T00:21:24;99524.22;;;1.52;77.97
52745;BME280;38637;49.984;20.426;2023-02-23T00:23:52;99528.97;;;1.50;78.10
52745;BME280;38637;49.984;20.426;2023-02-23T00:26:19;99522.53;;;1.44;78.02
52745;BME280;38637;49.984;20.426;2023-02-23T00:28:47;99521.91;;;1.42;78.10
52745;BME280;38637;49.984;20.426;2023-02-23T00:31:12;99528.75;;;1.45;78.28
52745;BME280;38637;49.984;20.426;2023-02-23T00:33:38;99529.75;;;1.44;78.17
52745;BME280;38637;49.984;20.426;2023-02-23T00:36:11;99530.56;;;1.37;78.31
52745;BME280;38637;49.984;20.426;2023-02-23T00:38:38;99526.84;;;1.38;78.30
52745;BME280;38637;49.984;20.426;2023-02-23T00:41:06;99531.59;;;1.36;78.23
52745;BME280;38637;49.984;20.426;2023-02-23T00:43:41;99535.09;;;1.37;78.61
52745;BME280;38637;49.984;20.426;2023-02-23T00:46:12;99523.53;;;1.36;78.31
52745;BME280;38637;49.984;20.426;2023-02-23T00:48:40;99517.69;;;1.26;78.47
52745;BME280;38637;49.984;20.426;2023-02-23T00:51:06;99529.50;;;1.32;78.53
52745;BME280;38637;49.984;20.426;2023-02-23T00:53:31;99530.34;;;1.32;78.38
52745;BME280;38637;49.984;20.426;2023-02-23T00:55:56;99506.09;;;1.26;78.96
52745;BME280;38637;49.984;20.426;2023-02-23T00:58:23;99528.25;;;1.34;78.53
52745;BME280;38637;49.984;20.426;2023-02-23T01:00:49;99526.22;;;1.36;78.39
52745;BME280;38637;49.984;20.426;2023-02-23T01:03:14;99521.22;;;1.33;78.45
52745;BME280;38637;49.984;20.426;2023-02-23T01:05:39;99529.50;;;1.32;78.16
52745;BME280;38637;49.984;20.426;2023-02-23T01:08:05;99527.00;;;1.30;78.57
52745;BME280;38637;49.984;20.426;2023-02-23T01:10:37;99536.94;;;1.30;78.57
52745;BME280;38637;49.984;20.426;2023-02-23T01:13:02;99534.69;;;1.33;78.45
52745;BME280;38637;49.984;20.426;2023-02-23T01:15:28;99525.97;;;1.31;78.38
52745;BME280;38637;49.984;20.426;2023-02-23T01:17:53;99526.75;;;1.25;78.32
52745;BME280;38637;49.984;20.426;2023-02-23T01:20:19;99525.50;;;1.21;78.31
52745;BME280;38637;49.984;20.426;2023-02-23T01:22:46;99517.00;;;1.18;78.41
52745;BME280;38637;49.984;20.426;2023-02-23T01:25:12;99518.66;;;1.19;78.56
52745;BME280;38637;49.984;20.426;2023-02-23T01:27:40;99502.88;;;1.09;78.13
52745;BME280;38637;49.984;20.426;2023-02-23T01:30:09;99512.78;;;1.08;78.81
52745;BME280;38637;49.984;20.426;2023-02-23T01:32:35;99511.94;;;1.01;79.01
52745;BME280;38637;49.984;20.426;2023-02-23T01:35:06;99512.75;;;1.02;78.85
52745;BME280;38637;49.984;20.426;2023-02-23T01:37:36;99508.59;;;0.99;78.98
52745;BME280;38637;49.984;20.426;2023-02-23T01:42:40;99504.88;;;1.00;78.83
52745;BME280;38637;49.984;20.426;2023-02-23T01:47:43;99499.28;;;0.95;79.11
52745;BME280;38637;49.984;20.426;2023-02-23T01:50:09;99502.53;;;0.90;79.20
52745;BME280;38637;49.984;20.426;2023-02-23T01:52:36;99501.72;;;0.90;79.51
52745;BME280;38637;49.984;20.426;2023-02-23T01:55:03;99498.19;;;0.89;79.17
52745;BME280;38637;49.984;20.426;2023-02-23T01:57:30;99493.66;;;0.90;79.28
52745;BME280;38637;49.984;20.426;2023-02-23T01:59:56;99501.72;;;0.90;79.32
52745;BME280;38637;49.984;20.426;2023-02-23T02:02:23;99491.13;;;0.88;79.50
52745;BME280;38637;49.984;20.426;2023-02-23T02:04:57;99497.56;;;0.87;79.01
52745;BME280;38637;49.984;20.426;2023-02-23T02:07:26;99490.09;;;0.83;79.43
52745;BME280;38637;49.984;20.426;2023-02-23T02:09:55;99492.31;;;0.79;79.50
52745;BME280;38637;49.984;20.426;2023-02-23T02:12:48;99481.56;;;0.79;79.23
52745;BME280;38637;49.984;20.426;2023-02-23T02:15:19;99473.41;;;0.66;79.42
52745;BME280;38637;49.984;20.426;2023-02-23T02:18:02;99485.50;;;0.77;79.33
52745;BME280;38637;49.984;20.426;2023-02-23T02:20:49;99480.13;;;0.77;79.42
52745;BME280;38637;49.984;20.426;2023-02-23T02:23:39;99476.97;;;0.73;79.93
52745;BME280;38637;49.984;20.426;2023-02-23T02:26:17;99484.97;;;0.66;79.27
52745;BME280;38637;49.984;20.426;2023-02-23T02:37:45;99466.94;;;0.60;79.67
52745;BME280;38637;49.984;20.426;2023-02-23T02:43:06;99468.41;;;0.63;79.70
52745;BME280;38637;49.984;20.426;2023-02-23T02:45:48;99463.66;;;0.58;79.62
52745;BME280;38637;49.984;20.426;2023-02-23T02:50:44;99462.41;;;0.61;79.24
52745;BME280;38637;49.984;20.426;2023-02-23T02:53:17;99464.88;;;0.56;79.20
52745;BME280;38637;49.984;20.426;2023-02-23T02:55:46;99460.88;;;0.52;79.68
52745;BME280;38637;49.984;20.426;2023-02-23T02:58:13;99458.78;;;0.47;79.37
52745;BME280;38637;49.984;20.426;2023-02-23T03:00:47;99456.06;;;0.40;80.15
52745;BME280;38637;49.984;20.426;2023-02-23T03:03:38;99458.03;;;0.32;80.45
52745;BME280;38637;49.984;20.426;2023-02-23T03:06:28;99460.72;;;0.32;80.50
52745;BME280;38637;49.984;20.426;2023-02-23T03:09:30;99461.56;;;0.32;80.23
52745;BME280;38637;49.984;20.426;2023-02-23T03:15:35;99461.13;;;0.29;80.20
52745;BME280;38637;49.984;20.426;2023-02-23T03:21:26;99455.75;;;0.29;80.41
52745;BME280;38637;49.984;20.426;2023-02-23T03:24:28;99460.28;;;0.28;80.54
52745;BME280;38637;49.984;20.426;2023-02-23T03:27:25;99450.75;;;0.26;80.64
52745;BME280;38637;49.984;20.426;2023-02-23T03:30:20;99450.56;;;0.27;80.52
52745;BME280;38637;49.984;20.426;2023-02-23T03:33:15;99451.41;;;0.28;80.34
52745;BME280;38637;49.984;20.426;2023-02-23T03:36:07;99443.25;;;0.21;80.15
52745;BME280;38637;49.984;20.426;2023-02-23T03:39:24;99439.19;;;0.25;80.15
52745;BME280;38637;49.984;20.426;2023-02-23T03:42:16;99437.50;;;0.24;80.22
52745;BME280;38637;49.984;20.426;2023-02-23T03:45:10;99442.31;;;0.29;79.79
52745;BME280;38637;49.984;20.426;2023-02-23T03:47:57;99442.50;;;0.27;79.78
52745;BME280;38637;49.984;20.426;2023-02-23T03:50:53;99449.72;;;0.27;79.79
52745;BME280;38637;49.984;20.426;2023-02-23T03:53:45;99454.66;;;0.23;79.89
52745;BME280;38637;49.984;20.426;2023-02-23T03:56:32;99454.22;;;0.19;79.77
52745;BME280;38637;49.984;20.426;2023-02-23T03:59:22;99452.09;;;0.15;80.03
52745;BME280;38637;49.984;20.426;2023-02-23T04:02:09;99445.44;;;0.11;80.07
52745;BME280;38637;49.984;20.426;2023-02-23T04:04:56;99454.09;;;0.06;80.60
52745;BME280;38637;49.984;20.426;2023-02-23T04:07:44;99447.69;;;0.07;80.54
52745;BME280;38637;49.984;20.426;2023-02-23T04:10:32;99451.16;;;0.01;79.92
52745;BME280;38637;49.984;20.426;2023-02-23T04:13:20;99438.56;;;0.02;80.17
52745;BME280;38637;49.984;20.426;2023-02-23T04:16:04;99444.75;;;0.02;80.24
52745;BME280;38637;49.984;20.426;2023-02-23T04:18:35;99443.16;;;0.08;80.22
52745;BME280;38637;49.984;20.426;2023-02-23T04:21:02;99442.31;;;0.07;79.97
52745;BME280;38637;49.984;20.426;2023-02-23T04:23:28;99445.41;;;0.04;79.82
52745;BME280;38637;49.984;20.426;2023-02-23T04:25:54;99447.44;;;0.02;80.29
52745;BME280;38637;49.984;20.426;2023-02-23T04:28:20;99441.88;;;0.04;80.07
52745;BME280;38637;49.984;20.426;2023-02-23T04:30:46;99439.75;;;-0.01;79.90
52745;BME280;38637;49.984;20.426;2023-02-23T04:33:12;99435.03;;;0.01;79.80
52745;BME280;38637;49.984;20.426;2023-02-23T04:35:38;99433.38;;;0.00;79.82
52745;BME280;38637;49.984;20.426;2023-02-23T04:38:03;99431.44;;;-0.06;79.97
52745;BME280;38637;49.984;20.426;2023-02-23T04:40:29;99438.28;;;-0.04;79.95
52745;BME280;38637;49.984;20.426;2023-02-23T04:42:55;99431.25;;;-0.05;80.24
52745;BME280;38637;49.984;20.426;2023-02-23T04:45:21;99431.72;;;-0.01;80.22
52745;BME280;38637;49.984;20.426;2023-02-23T04:47:47;99419.66;;;-0.12;79.86
52745;BME280;38637;49.984;20.426;2023-02-23T04:50:13;99389.47;;;-0.35;80.11
52745;BME280;38637;49.984;20.426;2023-02-23T04:52:39;99436.81;;;-0.06;80.20
52745;BME280;38637;49.984;20.426;2023-02-23T04:55:05;99423.59;;;-0.08;80.15
52745;BME280;38637;49.984;20.426;2023-02-23T04:57:31;99433.25;;;-0.13;79.70
52745;BME280;38637;49.984;20.426;2023-02-23T04:59:57;99413.75;;;-0.22;79.95
52745;BME280;38637;49.984;20.426;2023-02-23T05:02:22;99419.66;;;-0.12;79.84
52745;BME280;38637;49.984;20.426;2023-02-23T05:04:49;99427.69;;;-0.12;80.01
52745;BME280;38637;49.984;20.426;2023-02-23T05:07:15;99425.84;;;-0.11;80.22
52745;BME280;38637;49.984;20.426;2023-02-23T05:09:40;99421.34;;;-0.04;80.02
52745;BME280;38637;49.984;20.426;2023-02-23T05:12:05;99427.75;;;-0.05;79.45
52745;BME280;38637;49.984;20.426;2023-02-23T05:14:31;99424.03;;;-0.04;79.49
52745;BME280;38637;49.984;20.426;2023-02-23T05:16:56;99433.31;;;-0.07;79.21
52745;BME280;38637;49.984;20.426;2023-02-23T05:19:22;99417.34;;;-0.15;79.60
52745;BME280;38637;49.984;20.426;2023-02-23T05:21:47;99418.09;;;-0.21;80.12
52745;BME280;38637;49.984;20.426;2023-02-23T05:24:14;99429.66;;;-0.20;80.39
52745;BME280;38637;49.984;20.426;2023-02-23T05:26:41;99428.19;;;-0.23;80.00
52745;BME280;38637;49.984;20.426;2023-02-23T05:29:07;99419.69;;;-0.27;80.01
52745;BME280;38637;49.984;20.426;2023-02-23T05:31:32;99422.63;;;-0.21;80.38
52745;BME280;38637;49.984;20.426;2023-02-23T05:33:57;99431.44;;;-0.28;80.06
52745;BME280;38637;49.984;20.426;2023-02-23T05:36:23;99433.72;;;-0.25;80.00
52745;BME280;38637;49.984;20.426;2023-02-23T05:38:48;99441.97;;;-0.26;80.53
52745;BME280;38637;49.984;20.426;2023-02-23T05:41:16;99436.88;;;-0.21;80.11
52745;BME280;38637;49.984;20.426;2023-02-23T05:43:41;99429.84;;;-0.22;80.42
52745;BME280;38637;49.984;20.426;2023-02-23T05:46:15;99432.13;;;-0.19;80.39
52745;BME280;38637;49.984;20.426;2023-02-23T05:48:41;99436.94;;;-0.14;80.34
52745;BME280;38637;49.984;20.426;2023-02-23T05:51:09;99434.88;;;-0.12;79.77
52745;BME280;38637;49.984;20.426;2023-02-23T05:53:35;99431.66;;;-0.08;80.14
52745;BME280;38637;49.984;20.426;2023-02-23T05:56:02;99439.31;;;-0.05;80.00
52745;BME280;38637;49.984;20.426;2023-02-23T05:58:28;99441.25;;;0.02;79.36
52745;BME280;38637;49.984;20.426;2023-02-23T06:00:54;99446.22;;;0.05;79.73
52745;BME280;38637;49.984;20.426;2023-02-23T06:03:19;99439.53;;;0.15;79.76
52745;BME280;38637;49.984;20.426;2023-02-23T06:05:50;99443.91;;;0.23;79.45
52745;BME280;38637;49.984;20.426;2023-02-23T06:08:16;99439.19;;;0.25;79.25
52745;BME280;38637;49.984;20.426;2023-02-23T06:10:41;99442.69;;;0.26;78.68
52745;BME280;38637;49.984;20.426;2023-02-23T06:13:07;99438.81;;;0.28;78.62
52745;BME280;38637;49.984;20.426;2023-02-23T06:15:32;99440.44;;;0.29;78.58
52745;BME280;38637;49.984;20.426;2023-02-23T06:17:57;99437.81;;;0.36;78.61
52745;BME280;38637;49.984;20.426;2023-02-23T06:20:23;99438.72;;;0.43;78.85
52745;BME280;38637;49.984;20.426;2023-02-23T06:22:48;99439.56;;;0.43;78.51
52745;BME280;38637;49.984;20.426;2023-02-23T06:25:13;99438.00;;;0.56;78.54
52745;BME280;38637;49.984;20.426;2023-02-23T06:27:39;99425.19;;;0.58;78.49
52745;BME280;38637;49.984;20.426;2023-02-23T06:30:04;99448.69;;;0.77;77.97
52745;BME280;38637;49.984;20.426;2023-02-23T06:32:30;99447.31;;;0.88;77.74
52745;BME280;38637;49.984;20.426;2023-02-23T06:34:56;99449.41;;;0.93;77.95
52745;BME280;38637;49.984;20.426;2023-02-23T06:37:21;99449.22;;;1.01;77.91
52745;BME280;38637;49.984;20.426;2023-02-23T06:39:46;99439.59;;;1.13;77.43
52745;BME280;38637;49.984;20.426;2023-02-23T06:42:12;99442.13;;;1.21;77.29
52745;BME280;38637;49.984;20.426;2023-02-23T06:44:37;99442.78;;;1.30;77.70
52745;BME280;38637;49.984;20.426;2023-02-23T06:47:03;99444.28;;;1.39;77.44
52745;BME280;38637;49.984;20.426;2023-02-23T06:49:30;99445.13;;;1.46;76.82
52745;BME280;38637;49.984;20.426;2023-02-23T06:51:55;99442.00;;;1.43;76.83
52745;BME280;38637;49.984;20.426;2023-02-23T06:54:21;99449.03;;;1.44;76.99
52745;BME280;38637;49.984;20.426;2023-02-23T06:56:47;99448.84;;;1.45;76.73
52745;BME280;38637;49.984;20.426;2023-02-23T06:59:14;99444.13;;;1.54;76.92
52745;BME280;38637;49.984;20.426;2023-02-23T07:01:39;99446.03;;;1.60;76.98
52745;BME280;38637;49.984;20.426;2023-02-23T07:04:06;99454.53;;;1.70;76.82
52745;BME280;38637;49.984;20.426;2023-02-23T07:06:31;99451.84;;;1.77;77.22
52745;BME280;38637;49.984;20.426;2023-02-23T07:08:57;99444.44;;;1.86;77.04
52745;BME280;38637;49.984;20.426;2023-02-23T07:11:22;99446.53;;;1.97;77.29
52745;BME280;38637;49.984;20.426;2023-02-23T07:13:48;99447.59;;;2.09;76.80
52745;BME280;38637;49.984;20.426;2023-02-23T07:16:13;99445.91;;;2.08;76.15
52745;BME280;38637;49.984;20.426;2023-02-23T07:18:40;99451.94;;;2.10;76.37
52745;BME280;38637;49.984;20.426;2023-02-23T07:21:06;99449.03;;;2.05;76.23
52745;BME280;38637;49.984;20.426;2023-02-23T07:23:32;99447.78;;;2.14;76.85
52745;BME280;38637;49.984;20.426;2023-02-23T07:25:57;99444.50;;;2.25;76.98
52745;BME280;38637;49.984;20.426;2023-02-23T07:28:24;99443.69;;;2.32;76.50
52745;BME280;38637;49.984;20.426;2023-02-23T07:30:55;99433.31;;;2.35;76.60
52745;BME280;38637;49.984;20.426;2023-02-23T07:33:20;99449.91;;;2.52;76.38
52745;BME280;38637;49.984;20.426;2023-02-23T07:35:45;99440.34;;;2.63;76.32
52745;BME280;38637;49.984;20.426;2023-02-23T07:38:11;99442.66;;;2.72;76.11
52745;BME280;38637;49.984;20.426;2023-02-23T07:40:37;99397.47;;;2.55;76.13
52745;BME280;38637;49.984;20.426;2023-02-23T07:43:03;99441.16;;;2.83;75.90
52745;BME280;38637;49.984;20.426;2023-02-23T07:45:28;99439.50;;;2.89;76.19
52745;BME280;38637;49.984;20.426;2023-02-23T07:47:53;99438.03;;;2.99;76.01
52745;BME280;38637;49.984;20.426;2023-02-23T07:50:19;99429.72;;;3.08;75.86
52745;BME280;38637;49.984;20.426;2023-02-23T07:52:44;99427.00;;;3.14;75.42
52745;BME280;38637;49.984;20.426;2023-02-23T07:55:10;99434.44;;;3.26;75.44
52745;BME280;38637;49.984;20.426;2023-02-23T07:57:36;99430.47;;;3.35;75.21
52745;BME280;38637;49.984;20.426;2023-02-23T08:00:04;99433.09;;;3.48;75.38
52745;BME280;38637;49.984;20.426;2023-02-23T08:02:29;99435.19;;;3.53;75.17
52745;BME280;38637;49.984;20.426;2023-02-23T08:04:56;99434.75;;;3.56;74.62
52745;BME280;38637;49.984;20.426;2023-02-23T08:07:22;99422.06;;;3.56;74.20
52745;BME280;38637;49.984;20.426;2023-02-23T08:09:48;99434.91;;;3.67;73.86
52745;BME280;38637;49.984;20.426;2023-02-23T08:12:14;99429.22;;;3.76;73.24
52745;BME280;38637;49.984;20.426;2023-02-23T08:14:40;99432.13;;;3.81;73.51
52745;BME280;38637;49.984;20.426;2023-02-23T08:17:05;99428.75;;;3.92;73.16
52745;BME280;38637;49.984;20.426;2023-02-23T08:19:30;99432.44;;;3.98;73.07
52745;BME280;38637;49.984;20.426;2023-02-23T08:21:56;99436.53;;;4.07;72.61
52745;BME280;38637;49.984;20.426;2023-02-23T08:24:21;99430.22;;;4.20;72.51
52745;BME280;38637;49.984;20.426;2023-02-23T08:26:47;99434.53;;;4.27;72.47
52745;BME280;38637;49.984;20.426;2023-02-23T08:29:13;99431.34;;;4.37;72.84
52745;BME280;38637;49.984;20.426;2023-02-23T08:31:39;99433.84;;;4.38;71.56
52745;BME280;38637;49.984;20.426;2023-02-23T08:34:04;99428.81;;;4.42;71.37
52745;BME280;38637;49.984;20.426;2023-02-23T08:36:29;99437.41;;;4.57;71.10
52745;BME280;38637;49.984;20.426;2023-02-23T08:38:55;99433.38;;;4.67;70.92
52745;BME280;38637;49.984;20.426;2023-02-23T08:41:20;99430.44;;;4.68;70.25
52745;BME280;38637;49.984;20.426;2023-02-23T08:43:45;99425.81;;;4.75;70.10
52745;BME280;38637;49.984;20.426;2023-02-23T08:46:12;99437.19;;;4.84;69.85
52745;BME280;38637;49.984;20.426;2023-02-23T08:48:37;99430.44;;;4.93;69.81
52745;BME280;38637;49.984;20.426;2023-02-23T08:51:05;99423.25;;;5.05;69.29
52745;BME280;38637;49.984;20.426;2023-02-23T08:53:30;99423.38;;;5.11;68.96
52745;BME280;38637;49.984;20.426;2023-02-23T08:55:57;99424.72;;;5.20;69.26
52745;BME280;38637;49.984;20.426;2023-02-23T08:58:23;99415.88;;;5.31;69.26
52745;BME280;38637;49.984;20.426;2023-02-23T09:00:48;99416.03;;;5.36;68.17
52745;BME280;38637;49.984;20.426;2023-02-23T09:03:14;99416.09;;;5.48;68.24
52745;BME280;38637;49.984;20.426;2023-02-23T09:05:39;99409.31;;;5.57;67.27
52745;BME280;38637;49.984;20.426;2023-02-23T09:08:04;99407.78;;;5.61;67.59
52745;BME280;38637;49.984;20.426;2023-02-23T09:10:31;99419.25;;;5.63;66.71
52745;BME280;38637;49.984;20.426;2023-02-23T09:12:57;99409.94;;;5.71;66.74
52745;BME280;38637;49.984;20.426;2023-02-23T09:15:23;99410.22;;;5.81;66.84
52745;BME280;38637;49.984;20.426;2023-02-23T09:17:48;99403.88;;;5.87;66.56
52745;BME280;38637;49.984;20.426;2023-02-23T09:20:15;99415.94;;;5.91;65.86
52745;BME280;38637;49.984;20.426;2023-02-23T09:22:41;99403.00;;;5.93;65.67
52745;BME280;38637;49.984;20.426;2023-02-23T09:25:16;99403.97;;;5.99;65.63
52745;BME280;38637;49.984;20.426;2023-02-23T09:27:46;99371.16;;;5.89;65.34
52745;BME280;38637;49.984;20.426;2023-02-23T09:30:12;99406.84;;;6.16;65.25
52745;BME280;38637;49.984;20.426;2023-02-23T09:32:43;99400.16;;;6.18;65.12
52745;BME280;38637;49.984;20.426;2023-02-23T09:35:08;99408.75;;;6.27;64.97
52745;BME280;38637;49.984;20.426;2023-02-23T09:37:33;99406.16;;;6.32;64.72
52745;BME280;38637;49.984;20.426;2023-02-23T09:39:58;99403.13;;;6.40;64.93
52745;BME280;38637;49.984;20.426;2023-02-23T09:45:12;99395.31;;;6.32;63.33
52745;BME280;38637;49.984;20.426;2023-02-23T09:47:53;99413.97;;;6.40;63.73
52745;BME280;38637;49.984;20.426;2023-02-23T09:50:24;99401.38;;;6.46;63.50
52745;BME280;38637;49.984;20.426;2023-02-23T09:53:23;99395.56;;;6.54;63.58
52745;BME280;38637;49.984;20.426;2023-02-23T09:55:51;99396.41;;;6.55;63.06
52745;BME280;38637;49.984;20.426;2023-02-23T09:58:28;99387.78;;;6.58;63.31
52745;BME280;38637;49.984;20.426;2023-02-23T10:04:22;99391.94;;;6.72;63.28
52745;BME280;38637;49.984;20.426;2023-02-23T10:06:58;99381.78;;;6.79;63.61
52745;BME280;38637;49.984;20.426;2023-02-23T10:12:13;99400.06;;;6.96;63.72
52745;BME280;38637;49.984;20.426;2023-02-23T10:15:12;99390.03;;;6.96;62.91
52745;BME280;38637;49.984;20.426;2023-02-23T10:18:02;99380.59;;;6.99;63.09
52745;BME280;38637;49.984;20.426;2023-02-23T10:20:52;99375.72;;;7.01;62.78
52745;BME280;38637;49.984;20.426;2023-02-23T10:23:30;99380.59;;;6.99;62.13
52745;BME280;38637;49.984;20.426;2023-02-23T10:25:59;99381.56;;;6.93;62.09
52745;BME280;38637;49.984;20.426;2023-02-23T10:28:27;99377.06;;;6.98;62.39
52745;BME280;38637;49.984;20.426;2023-02-23T10:30:57;99375.84;;;7.06;62.34
52745;BME280;38637;49.984;20.426;2023-02-23T10:33:27;99375.72;;;7.12;62.42
52745;BME280;38637;49.984;20.426;2023-02-23T10:36:01;99374.91;;;7.12;61.76
52745;BME280;38637;49.984;20.426;2023-02-23T10:38:33;99372.88;;;7.19;62.23
52745;BME280;38637;49.984;20.426;2023-02-23T10:40:58;99370.38;;;7.29;62.21
52745;BME280;38637;49.984;20.426;2023-02-23T10:43:23;99376.03;;;7.40;62.61
52745;BME280;38637;49.984;20.426;2023-02-23T10:45:51;99369.03;;;7.44;62.04
52745;BME280;38637;49.984;20.426;2023-02-23T10:48:22;99367.50;;;7.48;61.99
52745;BME280;38637;49.984;20.426;2023-02-23T10:50:49;99354.88;;;7.42;61.47
52745;BME280;38637;49.984;20.426;2023-02-23T10:53:24;99361.47;;;7.46;61.45
52745;BME280;38637;49.984;20.426;2023-02-23T10:56:10;99353.78;;;7.54;61.49
52745;BME280;38637;49.984;20.426;2023-02-23T10:58:46;99353.88;;;7.59;61.32
52745;BME280;38637;49.984;20.426;2023-02-23T11:01:14;99340.63;;;7.63;61.49
52745;BME280;38637;49.984;20.426;2023-02-23T11:03:44;99340.63;;;7.63;61.34
52745;BME280;38637;49.984;20.426;2023-02-23T11:06:30;99329.94;;;7.73;61.37
52745;BME280;38637;49.984;20.426;2023-02-23T11:08:56;99322.59;;;7.74;61.58
52745;BME280;38637;49.984;20.426;2023-02-23T11:11:26;99322.69;;;7.79;60.89
52745;BME280;38637;49.984;20.426;2023-02-23T11:13:53;99327.31;;;7.78;60.58
52745;BME280;38637;49.984;20.426;2023-02-23T11:16:25;99320.41;;;7.88;61.09
52745;BME280;38637;49.984;20.426;2023-02-23T11:18:55;99312.41;;;7.98;61.28
52745;BME280;38637;49.984;20.426;2023-02-23T11:21:27;99321.25;;;8.05;61.03
52745;BME280;38637;49.984;20.426;2023-02-23T11:24:26;99310.78;;;8.14;60.72
52745;BME280;38637;49.984;20.426;2023-02-23T11:26:56;99313.97;;;8.11;60.23
52745;BME280;38637;49.984;20.426;2023-02-23T11:29:33;99306.00;;;8.21;60.32
52745;BME280;38637;49.984;20.426;2023-02-23T11:32:06;99307.25;;;8.30;60.45
52745;BME280;38637;49.984;20.426;2023-02-23T11:34:35;99305.34;;;8.31;60.26
52745;BME280;38637;49.984;20.426;2023-02-23T11:39:53;99294.13;;;8.44;59.71
52745;BME280;38637;49.984;20.426;2023-02-23T11:42:21;99294.84;;;8.56;59.77
52745;BME280;38637;49.984;20.426;2023-02-23T11:45:04;99300.31;;;8.56;59.98
52745;BME280;38637;49.984;20.426;2023-02-23T11:47:32;99293.63;;;8.64;59.69
52745;BME280;38637;49.984;20.426;2023-02-23T11:50:00;99286.91;;;8.71;59.67
52745;BME280;38637;49.984;20.426;2023-02-23T11:52:28;99279.91;;;8.76;59.43
52745;BME280;38637;49.984;20.426;2023-02-23T11:54:56;99278.91;;;8.82;59.21
52745;BME280;38637;49.984;20.426;2023-02-23T11:57:25;99282.44;;;8.82;59.01
52745;BME280;38637;49.984;20.426;2023-02-23T11:59:52;99272.88;;;8.80;59.20
52745;BME280;38637;49.984;20.426;2023-02-23T12:02:27;99275.19;;;8.93;59.24
52745;BME280;38637;49.984;20.426;2023-02-23T12:05:17;99276.41;;;9.02;59.64
52745;BME280;38637;49.984;20.426;2023-02-23T12:07:54;99269.72;;;9.10;59.30
52745;BME280;38637;49.984;20.426;2023-02-23T12:10:25;99263.59;;;9.03;58.84
52745;BME280;38637;49.984;20.426;2023-02-23T12:13:30;99275.69;;;9.12;59.31
52745;BME280;38637;49.984;20.426;2023-02-23T12:16:03;99265.31;;;9.09;58.79
52745;BME280;38637;49.984;20.426;2023-02-23T12:21:40;99252.88;;;9.18;59.10
52745;BME280;38637;49.984;20.426;2023-02-23T12:24:22;99255.38;;;9.19;58.93
52745;BME280;38637;49.984;20.426;2023-02-23T12:27:28;99257.06;;;9.26;58.88
52745;BME280;38637;49.984;20.426;2023-02-23T12:30:15;99245.28;;;9.20;58.66
52745;BME280;38637;49.984;20.426;2023-02-23T12:32:56;99243.97;;;9.23;58.73
52745;BME280;38637;49.984;20.426;2023-02-23T12:38:18;99243.81;;;9.34;58.86
52745;BME280;38637;49.984;20.426;2023-02-23T12:40:54;99234.63;;;9.40;58.98
52745;BME280;38637;49.984;20.426;2023-02-23T12:43:34;99233.28;;;9.43;59.23
52745;BME280;38637;49.984;20.426;2023-02-23T12:49:12;99232.94;;;9.39;58.55
52745;BME280;38637;49.984;20.426;2023-02-23T12:51:53;99234.91;;;9.44;58.51
52745;BME280;38637;49.984;20.426;2023-02-23T12:54:21;99224.09;;;9.49;58.27
52745;BME280;38637;49.984;20.426;2023-02-23T12:56:52;99217.59;;;9.55;58.48
52745;BME280;38637;49.984;20.426;2023-02-23T13:01:55;99210.53;;;9.59;58.62
52745;BME280;38637;49.984;20.426;2023-02-23T13:04:33;99207.88;;;9.64;58.43
52745;BME280;38637;49.984;20.426;2023-02-23T13:10:12;99198.81;;;9.59;58.61
52745;BME280;38637;49.984;20.426;2023-02-23T13:13:35;99199.94;;;9.63;58.75
52745;BME280;38637;49.984;20.426;2023-02-23T13:18:19;99195.81;;;9.60;58.64
52745;BME280;38637;49.984;20.426;2023-02-23T13:20:54;99195.28;;;9.63;58.88
52745;BME280;38637;49.984;20.426;2023-02-23T13:23:39;99182.81;;;9.68;59.27
52745;BME280;38637;49.984;20.426;2023-02-23T13:31:40;99187.22;;;9.74;59.43
52745;BME280;38637;49.984;20.426;2023-02-23T13:34:12;99187.47;;;9.72;59.06
52745;BME280;38637;49.984;20.426;2023-02-23T13:36:41;99180.59;;;9.64;59.08
52745;BME280;38637;49.984;20.426;2023-02-23T13:39:14;99176.50;;;9.67;59.12
52745;BME280;38637;49.984;20.426;2023-02-23T13:42:02;99169.69;;;9.64;59.23
52745;BME280;38637;49.984;20.426;2023-02-23T13:44:40;99176.78;;;9.65;59.08
52745;BME280;38637;49.984;20.426;2023-02-23T13:52:52;99152.16;;;9.55;59.47
52745;BME280;38637;49.984;20.426;2023-02-23T13:55:35;99165.56;;;9.62;59.62
52745;BME280;38637;49.984;20.426;2023-02-23T13:58:10;99160.94;;;9.62;59.75
52745;BME280;38637;49.984;20.426;2023-02-23T14:00:39;99159.03;;;9.63;59.97
52745;BME280;38637;49.984;20.426;2023-02-23T14:03:07;99158.50;;;9.66;60.34
52745;BME280;38637;49.984;20.426;2023-02-23T14:05:43;99154.97;;;9.65;60.43
52745;BME280;38637;49.984;20.426;2023-02-23T14:08:21;99153.63;;;9.68;60.32
52745;BME280;38637;49.984;20.426;2023-02-23T14:10:48;99158.50;;;9.66;60.33
52745;BME280;38637;49.984;20.426;2023-02-23T14:15:47;99133.63;;;9.57;60.36
52745;BME280;38637;49.984;20.426;2023-02-23T14:20:48;99144.88;;;9.66;60.37
52745;BME280;38637;49.984;20.426;2023-02-23T14:25:51;99138.13;;;9.74;60.88
52745;BME280;38637;49.984;20.426;2023-02-23T14:41:23;99122.31;;;9.71;61.17
52745;BME280;38637;49.984;20.426;2023-02-23T14:47:00;99121.72;;;9.69;61.21
52745;BME280;38637;49.984;20.426;2023-02-23T14:49:29;99111.34;;;9.65;61.78
52745;BME280;38637;49.984;20.426;2023-02-23T14:51:57;99110.53;;;9.65;61.73